createdAt,value
2023-02-26T00:01:24.547Z,101524.22
2023-02-26T00:03:54.526Z,101520.81
2023-02-26T00:06:22.462Z,101532.72
2023-02-26T00:08:50.070Z,101537.00
2023-02-26T00:11:18.016Z,101535.28
2023-02-26T00:13:46.135Z,101537.84
2023-02-26T00:16:20.171Z,101548.06
2023-02-26T00:18:48.176Z,101554.03
2023-02-26T00:21:19.058Z,101549.78
2023-02-26T00:23:46.983Z,101544.66
2023-02-26T00:26:14.872Z,101538.69
2023-02-26T00:28:43.196Z,101541.25
2023-02-26T00:31:11.424Z,101539.56
2023-02-26T00:33:39.476Z,101543.81
2023-02-26T00:36:14.230Z,101545.53
2023-02-26T00:38:45.607Z,101547.22
2023-02-26T00:41:15.682Z,101540.41
2023-02-26T00:43:43.653Z,101542.09
2023-02-26T00:46:17.297Z,101543.78
2023-02-26T00:48:49.009Z,101554.84
2023-02-26T00:51:22.055Z,101552.31
2023-02-26T00:53:56.547Z,101558.28
2023-02-26T00:56:24.619Z,101571.06
2023-02-26T00:58:52.408Z,101571.06
2023-02-26T01:01:20.072Z,101570.19
2023-02-26T01:03:48.036Z,101577.00
2023-02-26T01:06:18.196Z,101590.63
2023-02-26T01:08:48.990Z,101589.78
2023-02-26T01:11:18.324Z,101594.91
2023-02-26T01:13:46.318Z,101595.78
2023-02-26T01:16:18.459Z,101588.94
2023-02-26T01:18:49.528Z,101588.13
2023-02-26T01:21:20.261Z,101594.06
2023-02-26T01:23:51.225Z,101595.75
2023-02-26T01:26:23.734Z,101594.91
2023-02-26T01:28:52.327Z,101590.63
2023-02-26T01:31:27.399Z,101596.59
2023-02-26T01:33:56.964Z,101591.50
2023-02-26T01:36:25.784Z,101590.63
2023-02-26T01:38:58.788Z,101589.78
2023-02-26T01:41:32.607Z,101603.41
2023-02-26T01:44:10.960Z,101606.81
2023-02-26T01:46:46.379Z,101601.72
2023-02-26T01:49:15.759Z,101608.53
2023-02-26T01:51:45.543Z,101609.38
2023-02-26T01:54:13.556Z,101611.09
2023-02-26T01:56:43.032Z,101621.31
2023-02-26T01:59:12.508Z,101625.59
2023-02-26T02:01:43.028Z,101619.63
2023-02-26T02:04:12.730Z,101627.28
2023-02-26T02:06:40.533Z,101633.28
2023-02-26T02:09:08.613Z,101629.84
2023-02-26T02:11:40.160Z,101630.72
2023-02-26T02:14:13.192Z,101629.84
2023-02-26T02:16:48.474Z,101632.41
2023-02-26T02:19:25.355Z,101648.63
2023-02-26T02:22:03.787Z,101652.88
2023-02-26T02:24:37.907Z,101652.00
2023-02-26T02:27:09.716Z,101646.88
2023-02-26T02:29:50.835Z,101654.56
2023-02-26T02:32:21.585Z,101652.00
2023-02-26T02:34:50.572Z,101649.44
2023-02-26T02:37:22.027Z,101646.06
2023-02-26T02:39:51.740Z,101646.06
2023-02-26T02:42:22.062Z,101637.53
2023-02-26T02:44:52.471Z,101644.34
2023-02-26T02:47:23.232Z,101642.63
2023-02-26T02:49:54.041Z,101639.22
2023-02-26T02:52:27.138Z,101649.44
2023-02-26T02:54:58.134Z,101655.44
2023-02-26T02:57:27.790Z,101655.44
2023-02-26T02:59:57.785Z,101669.06
2023-02-26T03:02:31.162Z,101666.53
2023-02-26T03:04:59.048Z,101671.63
2023-02-26T03:07:26.787Z,101669.06
2023-02-26T03:09:55.338Z,101670.78
2023-02-26T03:12:23.137Z,101674.19
2023-02-26T03:14:50.808Z,101683.56
2023-02-26T03:17:21.601Z,101684.44
2023-02-26T03:19:59.623Z,101686.13
2023-02-26T03:22:30.259Z,101684.44
2023-02-26T03:24:59.399Z,101689.53
2023-02-26T03:27:30.765Z,101693.78
2023-02-26T03:30:01.358Z,101694.66
2023-02-26T03:32:31.104Z,101690.38
2023-02-26T03:35:05.290Z,101691.22
2023-02-26T03:37:35.121Z,101695.47
2023-02-26T03:40:05.634Z,101693.78
2023-02-26T03:42:35.845Z,101701.47
2023-02-26T03:45:06.752Z,101692.94
2023-02-26T03:47:36.105Z,101698.06
2023-02-26T03:50:06.714Z,101686.09
2023-02-26T03:52:35.926Z,101688.66
2023-02-26T03:55:05.786Z,101707.44
2023-02-26T03:57:33.664Z,101706.56
2023-02-26T04:00:01.449Z,101716.78
2023-02-26T04:02:32.676Z,101720.19
2023-02-26T04:05:02.894Z,101721.03
2023-02-26T04:07:32.004Z,101726.16
2023-02-26T04:09:59.892Z,101717.63
2023-02-26T04:12:28.872Z,101726.16
2023-02-26T04:14:57.661Z,101723.59
2023-02-26T04:17:25.590Z,101715.94
2023-02-26T04:19:53.455Z,101717.66
2023-02-26T04:22:21.150Z,101725.31
2023-02-26T04:24:50.143Z,101720.19
2023-02-26T04:27:17.865Z,101718.50
2023-02-26T04:29:45.560Z,101719.34
2023-02-26T04:32:13.349Z,101720.22
2023-02-26T04:34:41.247Z,101719.34
2023-02-26T04:37:08.995Z,101725.31
2023-02-26T04:39:36.642Z,101727.88
2023-02-26T04:42:05.648Z,101726.19
2023-02-26T04:44:33.253Z,101732.13
2023-02-26T04:47:00.913Z,101740.66
2023-02-26T04:49:28.620Z,101737.22
2023-02-26T04:51:56.457Z,101736.38
2023-02-26T04:54:24.090Z,101739.78
2023-02-26T04:56:51.725Z,101737.22
2023-02-26T04:59:20.864Z,101737.19
2023-02-26T05:01:48.618Z,101744.88
2023-02-26T05:04:16.424Z,101743.19
2023-02-26T05:06:44.124Z,101745.72
2023-02-26T05:09:11.854Z,101743.19
2023-02-26T05:11:39.628Z,101746.59
2023-02-26T05:14:07.348Z,101744.06
2023-02-26T05:16:36.797Z,101747.47
2023-02-26T05:19:04.495Z,101744.09
2023-02-26T05:24:23.669Z,101750.03
2023-02-26T05:26:51.356Z,101753.44
2023-02-26T05:29:19.534Z,101755.16
2023-02-26T05:31:48.824Z,101754.31
2023-02-26T05:34:16.621Z,101757.72
2023-02-26T05:36:44.276Z,101762.84
2023-02-26T05:39:12.081Z,101770.50
2023-02-26T05:41:39.720Z,101767.09
2023-02-26T05:44:08.217Z,101775.63
2023-02-26T05:46:35.892Z,101771.41
2023-02-26T05:49:04.960Z,101774.78
2023-02-26T05:51:32.640Z,101775.66
2023-02-26T05:54:00.353Z,101782.47
2023-02-26T05:56:28.075Z,101785.00
2023-02-26T05:58:55.932Z,101787.56
2023-02-26T06:01:23.649Z,101801.22
2023-02-26T06:03:51.342Z,101803.78
2023-02-26T06:06:21.762Z,101803.78
2023-02-26T06:08:49.384Z,101804.63
2023-02-26T06:11:17.064Z,101811.44
2023-02-26T06:13:44.752Z,101819.97
2023-02-26T06:16:12.441Z,101824.22
2023-02-26T06:18:40.116Z,101826.78
2023-02-26T06:21:07.803Z,101834.41
2023-02-26T06:23:36.852Z,101831.84
2023-02-26T06:26:04.605Z,101837.81
2023-02-26T06:28:32.353Z,101840.34
2023-02-26T06:31:00.232Z,101838.69
2023-02-26T06:33:27.993Z,101845.50
2023-02-26T06:35:56.109Z,101838.69
2023-02-26T06:38:23.953Z,101849.78
2023-02-26T06:40:52.981Z,101848.91
2023-02-26T06:43:20.578Z,101857.47
2023-02-26T06:45:48.399Z,101858.31
2023-02-26T06:48:16.141Z,101863.41
2023-02-26T06:50:43.853Z,101861.72
2023-02-26T06:53:12.251Z,101866.81
2023-02-26T06:55:44.564Z,101865.13
2023-02-26T06:58:13.829Z,101872.81
2023-02-26T07:00:41.619Z,101871.94
2023-02-26T07:03:11.592Z,101873.69
2023-02-26T07:05:39.421Z,101879.63
2023-02-26T07:08:07.450Z,101873.69
2023-02-26T07:10:35.713Z,101875.38
2023-02-26T07:13:03.501Z,101883.94
2023-02-26T07:15:32.572Z,101889.06
2023-02-26T07:18:01.014Z,101892.50
2023-02-26T07:20:29.751Z,101894.25
2023-02-26T07:22:57.773Z,101885.72
2023-02-26T07:25:25.667Z,101886.59
2023-02-26T07:27:53.482Z,101895.09
2023-02-26T07:30:21.160Z,101893.41
2023-02-26T07:32:50.283Z,101896.78
2023-02-26T07:35:17.991Z,101908.78
2023-02-26T07:37:45.657Z,101907.06
2023-02-26T07:40:13.725Z,101912.19
2023-02-26T07:42:41.708Z,101915.59
2023-02-26T07:45:09.739Z,101916.47
2023-02-26T07:47:37.766Z,101927.56
2023-02-26T07:50:07.448Z,101933.56
2023-02-26T07:52:35.105Z,101936.97
2023-02-26T07:55:02.860Z,101942.09
2023-02-26T07:57:30.473Z,101948.06
2023-02-26T07:59:58.132Z,101947.25
2023-02-26T08:02:25.817Z,101951.50
2023-02-26T08:04:53.418Z,101953.22
2023-02-26T08:07:22.505Z,101956.63
2023-02-26T08:09:50.141Z,101960.03
2023-02-26T08:12:17.827Z,101957.50
2023-02-26T08:14:46.024Z,101964.34
2023-02-26T08:17:13.646Z,101966.03
2023-02-26T08:19:41.308Z,101967.75
2023-02-26T08:22:08.918Z,101970.31
2023-02-26T08:24:39.323Z,101967.75
2023-02-26T08:27:07.044Z,101978.00
2023-02-26T08:29:34.702Z,101971.16
2023-02-26T08:32:02.466Z,101976.28
2023-02-26T08:34:30.246Z,101974.53
2023-02-26T08:36:57.892Z,101978.78
2023-02-26T08:39:25.563Z,101985.63
2023-02-26T08:41:54.616Z,101978.72
2023-02-26T08:44:22.225Z,101991.53
2023-02-26T08:46:49.888Z,101988.94
2023-02-26T08:49:17.611Z,101988.91
2023-02-26T08:51:45.269Z,101989.78
2023-02-26T08:54:13.013Z,101995.69
2023-02-26T08:56:40.764Z,101997.38
2023-02-26T08:59:11.808Z,101998.19
2023-02-26T09:01:39.981Z,101990.47
2023-02-26T09:04:07.752Z,101986.19
2023-02-26T09:06:35.423Z,101991.34
2023-02-26T09:09:03.086Z,101987.06
2023-02-26T09:11:32.531Z,101985.31
2023-02-26T09:14:02.246Z,101986.97
2023-02-26T09:16:31.980Z,101995.50
2023-02-26T09:18:59.701Z,101991.19
2023-02-26T09:21:27.364Z,101995.38
2023-02-26T09:23:54.989Z,102000.44
2023-02-26T09:26:22.678Z,101999.47
2023-02-26T09:28:50.340Z,102011.31
2023-02-26T09:31:18.070Z,102012.91
2023-02-26T09:33:47.249Z,102014.59
2023-02-26T09:36:15.037Z,102020.50
2023-02-26T09:38:44.264Z,102005.84
2023-02-26T09:41:17.331Z,102022.06
2023-02-26T09:44:15.172Z,102025.44
2023-02-26T09:46:46.828Z,102035.63
2023-02-26T09:49:23.714Z,102043.28
2023-02-26T09:51:56.826Z,102045.78
2023-02-26T09:54:26.222Z,102040.50
2023-02-26T09:56:57.304Z,102036.88
2023-02-26T09:59:25.018Z,102047.13
2023-02-26T10:01:57.244Z,102037.75
2023-02-26T10:04:34.966Z,102065.22
2023-02-26T10:07:08.935Z,102054.97
2023-02-26T10:09:42.122Z,102065.22
2023-02-26T10:12:13.300Z,102067.69
2023-02-26T10:14:44.633Z,102065.97
2023-02-26T10:17:17.154Z,102065.16
2023-02-26T10:19:48.364Z,102081.38
2023-02-26T10:22:18.772Z,102073.63
2023-02-26T10:24:48.725Z,102089.91
2023-02-26T10:27:17.326Z,102073.53
2023-02-26T10:29:46.966Z,102082.09
2023-02-26T10:32:22.894Z,102081.19
2023-02-26T10:34:57.007Z,102079.38
2023-02-26T10:37:29.990Z,102082.78
2023-02-26T10:40:01.728Z,102079.31
2023-02-26T10:42:33.114Z,102078.56
2023-02-26T10:45:10.148Z,102089.75
2023-02-26T10:47:44.461Z,102086.97
2023-02-26T10:50:15.635Z,102084.34
2023-02-26T10:52:44.677Z,102089.59
2023-02-26T10:55:27.359Z,102097.34
2023-02-26T10:57:58.026Z,102087.75
2023-02-26T11:00:25.697Z,102097.97
2023-02-26T11:02:55.572Z,102095.38
2023-02-26T11:05:25.666Z,102098.78
2023-02-26T11:07:55.973Z,102099.56
2023-02-26T11:10:25.456Z,102103.00
2023-02-26T11:12:53.701Z,102105.50
2023-02-26T11:15:22.812Z,102103.59
2023-02-26T11:17:54.421Z,102101.09
2023-02-26T11:20:30.176Z,102107.03
2023-02-26T11:22:59.651Z,102097.66
2023-02-26T11:25:29.694Z,102108.75
2023-02-26T11:27:59.388Z,102113.06
2023-02-26T11:30:28.009Z,102112.16
2023-02-26T11:32:58.594Z,102114.75
2023-02-26T11:35:28.239Z,102106.13
2023-02-26T11:37:59.878Z,102112.97
2023-02-26T11:40:33.754Z,102113.78
2023-02-26T11:43:04.890Z,102117.19
2023-02-26T11:45:35.959Z,102117.03
2023-02-26T11:48:05.184Z,102112.78
2023-02-26T11:50:37.361Z,102117.13
2023-02-26T11:53:07.803Z,102122.25
2023-02-26T11:55:37.222Z,102122.25
2023-02-26T11:58:06.716Z,102127.41
2023-02-26T12:00:37.605Z,102124.72
2023-02-26T12:03:08.175Z,102129.84
2023-02-26T12:05:37.640Z,102132.41
2023-02-26T12:08:14.161Z,102128.97
2023-02-26T12:10:46.907Z,102133.16
2023-02-26T12:13:20.110Z,102128.91
2023-02-26T12:15:52.579Z,102129.81
2023-02-26T12:18:25.804Z,102137.44
2023-02-26T12:20:59.741Z,102135.69
2023-02-26T12:23:42.023Z,102126.19
2023-02-26T12:26:26.029Z,102121.91
2023-02-26T12:29:07.186Z,102139.03
2023-02-26T12:32:02.518Z,102128.75
2023-02-26T12:34:45.065Z,102131.56
2023-02-26T12:37:20.908Z,102128.94
2023-02-26T12:39:55.747Z,102128.94
2023-02-26T12:42:28.537Z,102128.09
2023-02-26T12:45:10.994Z,102137.59
2023-02-26T12:47:48.757Z,102134.16
2023-02-26T12:50:26.149Z,102136.75
2023-02-26T12:53:02.463Z,102143.69
2023-02-26T12:55:37.170Z,102139.38
2023-02-26T12:58:16.663Z,102135.91
2023-02-26T13:00:59.460Z,102148.75
2023-02-26T13:03:36.862Z,102142.75
2023-02-26T13:06:19.533Z,102145.28
2023-02-26T13:08:52.985Z,102157.13
2023-02-26T13:11:28.115Z,102151.00
2023-02-26T13:14:06.071Z,102156.13
2023-02-26T13:16:39.833Z,102152.78
2023-02-26T13:19:13.496Z,102160.53
2023-02-26T13:21:44.657Z,102158.78
2023-02-26T13:24:16.435Z,102168.28
2023-02-26T13:26:45.798Z,102173.16
2023-02-26T13:29:17.290Z,102174.84
2023-02-26T13:31:46.722Z,102172.97
2023-02-26T13:34:17.193Z,102183.47
2023-02-26T13:36:45.538Z,102185.22
2023-02-26T13:39:22.639Z,102178.25
2023-02-26T13:41:54.419Z,102177.63
2023-02-26T13:44:29.231Z,102183.75
2023-02-26T13:47:11.989Z,102183.84
2023-02-26T13:49:49.173Z,102192.47
2023-02-26T13:52:27.228Z,102185.56
2023-02-26T13:54:59.268Z,102188.25
2023-02-26T13:57:37.527Z,102189.13
2023-02-26T14:00:12.948Z,102195.16
2023-02-26T14:02:51.808Z,102190.00
2023-02-26T14:05:49.424Z,102198.66
2023-02-26T14:08:23.885Z,102192.59
2023-02-26T14:11:00.600Z,102189.25
2023-02-26T14:13:35.938Z,102192.66
2023-02-26T14:16:10.792Z,102188.41
2023-02-26T14:18:42.765Z,102191.00
2023-02-26T14:21:37.315Z,102198.75
2023-02-26T14:24:07.983Z,102201.34
2023-02-26T14:26:37.824Z,102199.63
2023-02-26T14:29:10.508Z,102204.75
2023-02-26T14:31:51.709Z,102205.69
2023-02-26T14:34:22.869Z,102208.25
2023-02-26T14:36:52.705Z,102205.81
2023-02-26T14:39:29.555Z,102206.66
2023-02-26T14:42:00.995Z,102204.91
2023-02-26T14:44:30.263Z,102204.97
2023-02-26T14:46:58.608Z,102203.25
2023-02-26T14:49:27.386Z,102209.31
2023-02-26T14:52:06.245Z,102211.06
2023-02-26T14:54:49.866Z,102213.69
2023-02-26T14:57:25.475Z,102213.69
2023-02-26T14:59:59.349Z,102220.59
2023-02-26T15:02:30.655Z,102215.44
2023-02-26T15:05:15.218Z,102220.63
2023-02-26T15:07:49.782Z,102215.47
2023-02-26T15:10:24.189Z,102213.81
2023-02-26T15:13:01.787Z,102224.16
2023-02-26T15:15:34.796Z,102225.09
2023-02-26T15:18:08.905Z,102224.22
2023-02-26T15:20:44.528Z,102226.84
2023-02-26T15:23:21.679Z,102229.47
2023-02-26T15:25:50.802Z,102230.38
2023-02-26T15:28:25.907Z,102221.84
2023-02-26T15:30:54.975Z,102235.66
2023-02-26T15:33:24.344Z,102232.25
2023-02-26T15:35:53.532Z,102238.34
2023-02-26T15:38:21.303Z,102229.75
2023-02-26T15:40:50.512Z,102240.13
2023-02-26T15:43:22.107Z,102244.47
2023-02-26T15:45:53.156Z,102238.50
2023-02-26T15:48:22.125Z,102240.25
2023-02-26T15:50:54.083Z,102242.00
2023-02-26T15:53:25.590Z,102243.81
2023-02-26T15:55:54.681Z,102240.41
2023-02-26T15:58:24.820Z,102245.63
2023-02-26T16:00:55.525Z,102250.81
2023-02-26T16:03:29.872Z,102243.97
2023-02-26T16:05:58.557Z,102252.63
2023-02-26T16:08:26.494Z,102259.50
2023-02-26T16:10:55.249Z,102255.25
2023-02-26T16:13:28.936Z,102251.88
2023-02-26T16:16:00.040Z,102253.59
2023-02-26T16:18:27.836Z,102256.19
2023-02-26T16:20:58.126Z,102254.50
2023-02-26T16:23:27.168Z,102265.72
2023-02-26T16:25:56.631Z,102263.16
2023-02-26T16:28:30.233Z,102264.84
2023-02-26T16:31:00.562Z,102274.34
2023-02-26T16:33:28.719Z,102270.06
2023-02-26T16:35:58.659Z,102270.09
2023-02-26T16:38:27.664Z,102270.16
2023-02-26T16:40:59.687Z,102289.06
2023-02-26T16:43:43.494Z,102281.41
2023-02-26T16:46:15.254Z,102285.78
2023-02-26T16:48:48.948Z,102290.97
2023-02-26T16:51:20.412Z,102292.69
2023-02-26T16:53:49.323Z,102295.28
2023-02-26T16:56:18.318Z,102290.16
2023-02-26T16:58:47.658Z,102291.03
2023-02-26T17:01:18.221Z,102287.59
2023-02-26T17:03:49.387Z,102288.47
2023-02-26T17:06:19.100Z,102289.34
2023-02-26T17:08:49.143Z,102298.75
2023-02-26T17:11:20.657Z,102291.91
2023-02-26T17:13:58.411Z,102296.19
2023-02-26T17:16:27.732Z,102280.75
2023-02-26T17:18:55.438Z,102288.47
2023-02-26T17:21:23.128Z,102287.63
2023-02-26T17:23:50.868Z,102283.34
2023-02-26T17:26:18.914Z,102290.22
2023-02-26T17:28:46.530Z,102288.47
2023-02-26T17:31:15.206Z,102291.03
2023-02-26T17:33:45.578Z,102288.44
2023-02-26T17:36:15.700Z,102283.28
2023-02-26T17:38:47.174Z,102291.81
2023-02-26T17:41:16.402Z,102284.06
2023-02-26T17:43:44.123Z,102296.88
2023-02-26T17:46:12.789Z,102295.94
2023-02-26T17:48:40.807Z,102295.91
2023-02-26T17:51:10.241Z,102306.13
2023-02-26T17:53:41.776Z,102301.84
2023-02-26T17:56:12.139Z,102313.78
2023-02-26T17:58:39.969Z,102310.31
2023-02-26T18:01:08.489Z,102308.41
2023-02-26T18:03:36.229Z,102315.94
2023-02-26T18:06:03.972Z,102320.13
2023-02-26T18:08:34.393Z,102313.34
2023-02-26T18:11:03.216Z,102315.88
2023-02-26T18:13:31.596Z,102314.13
2023-02-26T18:16:01.060Z,102316.63
2023-02-26T18:18:29.004Z,102317.47
2023-02-26T18:20:56.905Z,102323.50
2023-02-26T18:23:24.691Z,102326.03
2023-02-26T18:25:55.278Z,102328.56
2023-02-26T18:28:24.136Z,102320.84
2023-02-26T18:30:52.378Z,102326.81
2023-02-26T18:33:20.749Z,102325.09
2023-02-26T18:35:51.286Z,102326.75
2023-02-26T18:38:20.649Z,102325.88
2023-02-26T18:40:48.853Z,102330.97
2023-02-26T18:43:17.992Z,102330.94
2023-02-26T18:45:46.262Z,102329.25
2023-02-26T18:48:15.960Z,102330.03
2023-02-26T18:50:43.980Z,102324.88
2023-02-26T18:53:11.617Z,102328.22
2023-02-26T18:55:39.390Z,102332.44
2023-02-26T18:58:07.053Z,102327.25
2023-02-26T19:00:36.074Z,102324.69
2023-02-26T19:03:03.739Z,102329.78
2023-02-26T19:05:31.422Z,102334.81
2023-02-26T19:07:59.800Z,102327.94
2023-02-26T19:10:29.486Z,102331.31
2023-02-26T19:12:57.270Z,102327.84
2023-02-26T19:15:27.806Z,102332.94
2023-02-26T19:17:57.066Z,102337.16
2023-02-26T19:20:27.109Z,102330.25
2023-02-26T19:22:55.417Z,102331.84
2023-02-26T19:25:24.511Z,102333.47
2023-02-26T19:27:53.665Z,102330.69
2023-02-26T19:30:21.740Z,102337.38
2023-02-26T19:32:49.511Z,102340.72
2023-02-26T19:35:19.589Z,102337.28
2023-02-26T19:37:47.739Z,102338.03
2023-02-26T19:40:16.789Z,102341.41
2023-02-26T19:42:44.762Z,102333.72
2023-02-26T19:45:13.143Z,102342.97
2023-02-26T19:47:40.856Z,102336.94
2023-02-26T19:50:09.253Z,102336.03
2023-02-26T19:52:38.288Z,102347.06
2023-02-26T19:55:06.803Z,102337.59
2023-02-26T19:57:34.558Z,102341.84
2023-02-26T20:00:03.238Z,102345.97
2023-02-26T20:02:30.930Z,102347.69
2023-02-26T20:04:58.891Z,102337.47
2023-02-26T20:07:26.800Z,102343.34
2023-02-26T20:09:55.973Z,102350.97
2023-02-26T20:12:23.659Z,102348.38
2023-02-26T20:14:51.337Z,102351.78
2023-02-26T20:17:19.152Z,102353.38
2023-02-26T20:19:47.450Z,102364.41
2023-02-26T20:22:16.102Z,102363.34
2023-02-26T20:24:43.805Z,102367.63
2023-02-26T20:27:12.825Z,102362.47
2023-02-26T20:29:40.516Z,102356.41
2023-02-26T20:32:08.473Z,102356.28
2023-02-26T20:34:36.350Z,102362.16
2023-02-26T20:37:04.064Z,102364.69
2023-02-26T20:39:31.931Z,102363.09
2023-02-26T20:41:59.676Z,102374.22
2023-02-26T20:44:28.712Z,102374.22
2023-02-26T20:46:56.505Z,102368.13
2023-02-26T20:49:25.641Z,102368.19
2023-02-26T20:51:53.353Z,102364.84
2023-02-26T20:54:22.907Z,102379.38
2023-02-26T20:56:50.717Z,102381.84
2023-02-26T20:59:18.473Z,102380.91
2023-02-26T21:01:47.861Z,102383.38
2023-02-26T21:04:15.552Z,102380.03
2023-02-26T21:06:43.236Z,102383.38
2023-02-26T21:09:11.450Z,102385.91
2023-02-26T21:11:39.856Z,102392.56
2023-02-26T21:14:08.022Z,102395.69
2023-02-26T21:16:35.654Z,102389.56
2023-02-26T21:19:04.815Z,102386.97
2023-02-26T21:21:33.038Z,102396.41
2023-02-26T21:24:01.033Z,102395.56
2023-02-26T21:26:28.693Z,102392.09
2023-02-26T21:28:56.366Z,102384.28
2023-02-26T21:31:24.068Z,102382.56
2023-02-26T21:33:52.149Z,102379.19
2023-02-26T21:36:22.025Z,102383.47
2023-02-26T21:38:50.384Z,102384.97
2023-02-26T21:41:18.084Z,102388.25
2023-02-26T21:43:45.707Z,102377.06
2023-02-26T21:46:13.393Z,102389.59
2023-02-26T21:48:41.086Z,102383.47
2023-02-26T21:51:08.699Z,102383.69
2023-02-26T21:53:37.776Z,102384.75
2023-02-26T21:56:05.583Z,102388.28
2023-02-26T21:58:33.422Z,102385.91
2023-02-26T22:01:01.199Z,102386.84
2023-02-26T22:03:28.943Z,102396.34
2023-02-26T22:05:56.646Z,102395.69
2023-02-26T22:08:24.474Z,102400.88
2023-02-26T22:10:53.596Z,102405.25
2023-02-26T22:13:21.274Z,102407.03
2023-02-26T22:15:49.027Z,102401.28
2023-02-26T22:18:16.710Z,102401.41
2023-02-26T22:20:44.424Z,102404.81
2023-02-26T22:23:12.437Z,102406.63
2023-02-26T22:25:40.354Z,102414.41
2023-02-26T22:28:09.516Z,102421.22
2023-02-26T22:30:37.499Z,102413.72
2023-02-26T22:33:05.372Z,102416.38
2023-02-26T22:35:33.036Z,102411.25
2023-02-26T22:38:01.548Z,102409.56
2023-02-26T22:40:29.337Z,102406.28
2023-02-26T22:42:57.107Z,102407.25
2023-02-26T22:45:26.128Z,102405.59
2023-02-26T22:47:53.795Z,102412.44
2023-02-26T22:50:21.536Z,102405.69
2023-02-26T22:52:49.341Z,102407.34
2023-02-26T22:55:17.116Z,102400.66
2023-02-26T22:57:44.730Z,102399.88
2023-02-26T23:00:14.978Z,102409.38
2023-02-26T23:02:44.043Z,102404.31
2023-02-26T23:05:12.007Z,102400.94
2023-02-26T23:07:40.235Z,102410.25
2023-02-26T23:10:08.884Z,102403.53
2023-02-26T23:12:36.675Z,102402.00
2023-02-26T23:15:04.553Z,102397.84
2023-02-26T23:17:32.195Z,102405.56
2023-02-26T23:20:01.588Z,102406.50
2023-02-26T23:22:29.656Z,102411.69
2023-02-26T23:24:57.351Z,102407.50
2023-02-26T23:27:25.053Z,102421.13
2023-02-26T23:29:53.328Z,102421.19
2023-02-26T23:32:21.153Z,102411.91
2023-02-26T23:34:48.831Z,102414.53
2023-02-26T23:37:17.869Z,102413.75
2023-02-26T23:39:45.480Z,102412.09
2023-02-26T23:42:13.270Z,102413.00
2023-02-26T23:44:41.006Z,102418.13
2023-02-26T23:47:08.641Z,102419.03
2023-02-26T23:49:36.257Z,102423.28
2023-02-26T23:52:03.975Z,102415.59
2023-02-26T23:54:33.817Z,102420.72
2023-02-26T23:57:01.543Z,102423.28
2023-02-26T23:59:29.212Z,102426.69
